Time;durP1;ratioP1;P1;durP2;ratioP2;P2;SDS_P1;SDS_P2;PMS_P1;PMS_P2;Temp;Humidity;BMP_temperature;BMP_pressure;BME280_temperature;BME280_humidity;BME280_pressure;Samples;Min_cycle;Max_cycle;Signal;HPM_P1;HPM_P2
2023/10/22 00:00:23;;;;;;;3.35;3.03;;;13.70;99.90;;;;;;5069136;28;20214;-77
2023/10/22 00:02:50;;;;;;;2.75;2.55;;;13.70;99.90;;;;;;5067893;28;20255;-76
2023/10/22 00:05:17;;;;;;;3.05;2.67;;;13.60;99.90;;;;;;5068674;28;20278;-77
2023/10/22 00:07:44;;;;;;;3.03;2.83;;;13.60;99.90;;;;;;5069381;28;20248;-76
2023/10/22 00:10:13;;;;;;;2.50;2.30;;;13.60;99.90;;;;;;5066760;28;20241;-76
2023/10/22 00:12:40;;;;;;;2.92;2.60;;;13.60;99.90;;;;;;5068050;28;20207;-76
2023/10/22 00:15:08;;;;;;;2.50;2.30;;;13.60;99.90;;;;;;5067787;28;20198;-76
2023/10/22 00:17:35;;;;;;;2.65;2.45;;;13.60;99.90;;;;;;5066774;28;20222;-76
2023/10/22 00:20:02;;;;;;;2.80;2.60;;;13.60;99.90;;;;;;5065174;28;20214;-75
2023/10/22 00:22:29;;;;;;;2.67;2.47;;;13.50;99.90;;;;;;5065187;28;20204;-76
2023/10/22 00:24:57;;;;;;;3.10;2.80;;;13.50;99.90;;;;;;5067437;28;20251;-75
2023/10/22 00:27:26;;;;;;;2.72;2.53;;;13.50;99.90;;;;;;5066869;28;20725;-76
2023/10/22 00:29:53;;;;;;;2.90;2.63;;;13.50;99.90;;;;;;5063722;28;20240;-75
2023/10/22 00:32:20;;;;;;;2.67;2.47;;;13.40;99.90;;;;;;5070813;28;20198;-76
2023/10/22 00:34:47;;;;;;;2.92;2.72;;;13.40;99.90;;;;;;5068050;28;20669;-75
2023/10/22 00:37:14;;;;;;;3.15;2.90;;;13.50;99.90;;;;;;5068592;28;20202;-75
2023/10/22 00:39:41;;;;;;;2.40;2.30;;;13.50;99.90;;;;;;5067938;28;20218;-76
2023/10/22 00:42:08;;;;;;;2.72;2.53;;;13.50;99.90;;;;;;5067147;28;20198;-78
2023/10/22 00:44:37;;;;;;;2.80;2.60;;;13.50;99.90;;;;;;5067788;28;20198;-76
2023/10/22 00:47:06;;;;;;;2.60;2.40;;;13.50;99.90;;;;;;5065753;28;20263;-76
2023/10/22 00:49:34;;;;;;;2.30;2.20;;;13.50;99.90;;;;;;5065528;28;20271;-76
2023/10/22 00:52:01;;;;;;;2.38;2.17;;;13.50;99.90;;;;;;5066509;28;20557;-74
2023/10/22 00:54:29;;;;;;;2.83;2.50;;;13.50;99.90;;;;;;5066800;28;20650;-77
2023/10/22 00:56:56;;;;;;;3.17;2.88;;;13.50;99.90;;;;;;5067438;28;20783;-76
2023/10/22 00:59:24;;;;;;;2.90;2.70;;;13.50;99.90;;;;;;5067118;28;20214;-75
2023/10/22 01:01:53;;;;;;;3.03;2.72;;;13.50;99.90;;;;;;5066498;28;20236;-76
2023/10/22 01:04:20;;;;;;;2.60;2.40;;;13.50;99.90;;;;;;5066864;28;20190;-75
2023/10/22 01:06:47;;;;;;;2.50;2.30;;;13.50;99.90;;;;;;5066982;28;20255;-77
2023/10/22 01:09:15;;;;;;;3.53;3.20;;;13.60;99.90;;;;;;5066498;28;20253;-75
2023/10/22 01:12:00;;;;;;;3.63;3.33;;;13.60;99.90;;;;;;5067165;28;20198;-75
2023/10/22 01:14:28;;;;;;;3.30;3.10;;;13.50;99.90;;;;;;5066753;28;20599;-77
2023/10/22 01:16:56;;;;;;;3.08;2.88;;;13.50;99.90;;;;;;5065178;28;20202;-75
2023/10/22 01:19:23;;;;;;;3.22;2.90;;;13.50;99.90;;;;;;5064090;28;20220;-77
2023/10/22 01:21:50;;;;;;;3.40;3.10;;;13.50;99.90;;;;;;5067645;28;20198;-75
2023/10/22 01:24:18;;;;;;;3.10;2.90;;;13.50;99.90;;;;;;5068636;28;20322;-76
2023/10/22 01:26:46;;;;;;;3.47;3.28;;;13.50;99.90;;;;;;5067418;28;20256;-75
2023/10/22 01:29:13;;;;;;;3.20;2.95;;;13.50;99.90;;;;;;5066794;28;20280;-76
2023/10/22 01:31:41;;;;;;;3.97;3.67;;;13.40;99.90;;;;;;5067151;28;20190;-75
2023/10/22 01:34:08;;;;;;;4.90;4.45;;;13.40;99.90;;;;;;5069871;28;20206;-75
2023/10/22 01:36:35;;;;;;;3.78;3.47;;;13.30;99.90;;;;;;5067455;28;20199;-75
2023/10/22 01:39:02;;;;;;;3.38;3.00;;;13.30;99.90;;;;;;5065778;28;20222;-75
2023/10/22 01:41:31;;;;;;;3.45;2.90;;;13.30;99.90;;;;;;5065651;28;20317;-76
2023/10/22 01:43:58;;;;;;;2.80;2.60;;;13.30;99.90;;;;;;5067497;28;20199;-76
2023/10/22 01:46:25;;;;;;;3.28;3.08;;;13.30;99.90;;;;;;5066327;28;20668;-75
2023/10/22 01:48:52;;;;;;;3.20;3.00;;;13.40;99.90;;;;;;5065427;28;20267;-75
2023/10/22 01:51:19;;;;;;;3.55;3.28;;;13.40;99.90;;;;;;5066722;28;20248;-75
2023/10/22 01:53:49;;;;;;;3.10;2.90;;;13.40;99.90;;;;;;5066724;28;20607;-76
2023/10/22 01:56:16;;;;;;;3.10;2.90;;;13.30;99.90;;;;;;5067049;28;20202;-76
2023/10/22 01:58:45;;;;;;;3.30;3.00;;;13.30;99.90;;;;;;5066081;28;20641;-75
2023/10/22 02:01:12;;;;;;;3.17;2.97;;;13.30;99.90;;;;;;5066277;28;20321;-76
2023/10/22 02:03:40;;;;;;;3.60;3.30;;;13.20;99.90;;;;;;5070644;28;20198;-76
2023/10/22 02:06:12;;;;;;;2.60;2.22;;;13.20;99.90;;;;;;5066250;28;20208;-75
2023/10/22 02:08:39;;;;;;;2.80;2.60;;;13.20;99.90;;;;;;5066613;28;20263;-76
2023/10/22 02:11:06;;;;;;;2.95;2.75;;;13.30;99.90;;;;;;5066464;28;20198;-76
2023/10/22 02:13:33;;;;;;;2.83;2.63;;;13.30;99.90;;;;;;5065993;28;20251;-76
2023/10/22 02:16:01;;;;;;;3.10;2.90;;;13.30;99.90;;;;;;5067380;28;20244;-77
2023/10/22 02:18:28;;;;;;;2.90;2.67;;;13.30;99.90;;;;;;5066801;28;20218;-76
2023/10/22 02:20:56;;;;;;;2.80;2.60;;;13.30;99.90;;;;;;5069558;28;20218;-76
2023/10/22 02:23:24;;;;;;;2.53;2.38;;;13.30;99.90;;;;;;5067579;28;20230;-74
2023/10/22 02:25:51;;;;;;;2.47;2.30;;;13.40;99.90;;;;;;5065230;28;20199;-76
2023/10/22 02:28:18;;;;;;;3.75;2.88;;;13.40;99.90;;;;;;5063741;28;20229;-76
2023/10/22 02:30:47;;;;;;;2.40;2.30;;;13.40;99.90;;;;;;5067774;28;20190;-76
2023/10/22 02:33:15;;;;;;;2.60;2.47;;;13.40;99.90;;;;;;5067306;28;20198;-76
2023/10/22 02:35:43;;;;;;;2.30;2.20;;;13.40;99.90;;;;;;5067314;28;20194;-75
2023/10/22 02:38:12;;;;;;;2.65;2.45;;;13.40;99.90;;;;;;5068001;28;20268;-76
2023/10/22 02:40:39;;;;;;;2.20;2.10;;;13.40;99.90;;;;;;5070106;28;20233;-76
2023/10/22 02:43:06;;;;;;;2.42;2.22;;;13.40;99.90;;;;;;5067670;28;20661;-76
2023/10/22 02:45:34;;;;;;;2.15;2.00;;;13.40;99.90;;;;;;5068703;28;20202;-76
2023/10/22 02:48:01;;;;;;;2.30;2.20;;;13.40;99.90;;;;;;5065766;28;20222;-76
2023/10/22 02:50:29;;;;;;;2.38;2.17;;;13.30;99.90;;;;;;5067575;28;20285;-77
2023/10/22 02:52:56;;;;;;;2.47;2.38;;;13.30;99.90;;;;;;5067694;28;20256;-76
2023/10/22 02:55:23;;;;;;;2.25;2.15;;;13.30;99.90;;;;;;5067033;28;20259;-76
2023/10/22 02:57:50;;;;;;;2.20;2.10;;;13.30;99.90;;;;;;5066426;28;20306;-76
2023/10/22 03:00:19;;;;;;;2.97;2.78;;;13.30;99.90;;;;;;5071392;28;20287;-76
2023/10/22 03:02:45;;;;;;;2.60;2.40;;;13.30;99.90;;;;;;5068813;28;20303;-75
2023/10/22 03:05:12;;;;;;;2.72;2.53;;;13.30;99.90;;;;;;5071246;28;20609;-76
2023/10/22 03:07:42;;;;;;;2.50;2.30;;;13.30;99.90;;;;;;5069256;28;20214;-77
2023/10/22 03:10:10;;;;;;;2.50;2.30;;;13.30;99.90;;;;;;5072911;28;20281;-76
2023/10/22 03:12:37;;;;;;;2.65;2.45;;;13.30;99.90;;;;;;5067843;28;20239;-77
2023/10/22 03:15:05;;;;;;;2.42;2.22;;;13.30;99.90;;;;;;5071757;28;20890;-76
2023/10/22 03:17:32;;;;;;;2.47;2.28;;;13.30;99.90;;;;;;5071869;28;20263;-76
2023/10/22 03:20:00;;;;;;;2.78;2.20;;;13.20;99.90;;;;;;5068921;28;20248;-76
2023/10/22 03:22:27;;;;;;;3.58;2.78;;;13.30;99.90;;;;;;5070601;28;20298;-76
2023/10/22 03:24:55;;;;;;;2.60;2.40;;;13.30;99.90;;;;;;5066283;28;20665;-76
2023/10/22 03:27:22;;;;;;;2.70;2.50;;;13.30;99.90;;;;;;5068611;28;20715;-76
2023/10/22 03:29:49;;;;;;;2.58;2.40;;;13.30;99.90;;;;;;5067743;28;20198;-76
2023/10/22 03:32:16;;;;;;;2.22;2.13;;;13.30;99.90;;;;;;5070799;28;20295;-76
2023/10/22 03:34:43;;;;;;;2.35;2.20;;;13.30;99.90;;;;;;5070302;28;20198;-77
2023/10/22 03:37:10;;;;;;;2.72;2.53;;;13.30;99.90;;;;;;5066412;28;20195;-76
2023/10/22 03:39:37;;;;;;;2.30;2.20;;;13.30;99.90;;;;;;5071015;28;20711;-76
2023/10/22 03:42:06;;;;;;;2.25;2.15;;;13.30;99.90;;;;;;5069263;28;20288;-76
2023/10/22 03:44:33;;;;;;;2.60;2.40;;;13.30;99.90;;;;;;5067586;28;20206;-76
2023/10/22 03:47:00;;;;;;;2.50;2.40;;;13.30;99.90;;;;;;5068117;28;20252;-77
2023/10/22 03:49:27;;;;;;;2.42;2.28;;;13.30;99.90;;;;;;5068883;28;20210;-76
2023/10/22 03:51:54;;;;;;;2.78;2.58;;;13.30;99.90;;;;;;5068172;28;20198;-76
2023/10/22 03:54:20;;;;;;;2.53;2.33;;;13.30;99.90;;;;;;5069459;28;20276;-76
2023/10/22 03:56:47;;;;;;;2.80;2.60;;;13.30;99.90;;;;;;5064803;28;20566;-77
2023/10/22 03:59:16;;;;;;;2.58;2.33;;;13.30;99.90;;;;;;5066349;28;20287;-77
2023/10/22 04:01:43;;;;;;;2.47;2.28;;;13.30;99.90;;;;;;5066095;28;20268;-76
2023/10/22 04:04:10;;;;;;;2.53;2.42;;;13.30;99.90;;;;;;5068623;28;20251;-76
2023/10/22 04:06:37;;;;;;;2.95;2.75;;;13.30;99.90;;;;;;5065950;28;20263;-77
2023/10/22 04:09:04;;;;;;;2.97;2.78;;;13.30;99.90;;;;;;5066620;28;20264;-76
2023/10/22 04:11:30;;;;;;;2.58;2.38;;;13.30;99.90;;;;;;5065753;28;20573;-76
2023/10/22 04:13:57;;;;;;;2.30;2.10;;;13.40;99.90;;;;;;5069599;28;20252;-76
2023/10/22 04:16:26;;;;;;;2.15;2.05;;;13.40;99.90;;;;;;5067111;28;20284;-76
2023/10/22 04:18:53;;;;;;;2.90;2.70;;;13.40;99.90;;;;;;5067061;28;20218;-75
2023/10/22 04:21:20;;;;;;;3.30;2.97;;;13.40;99.90;;;;;;5066749;28;20223;-76
2023/10/22 04:23:47;;;;;;;2.85;2.65;;;13.40;99.90;;;;;;5068573;28;20795;-77
2023/10/22 04:26:15;;;;;;;2.25;2.15;;;13.40;99.90;;;;;;5068540;28;20243;-76
2023/10/22 04:28:42;;;;;;;2.90;2.70;;;13.40;99.90;;;;;;5066319;28;20241;-76
2023/10/22 04:31:10;;;;;;;2.83;2.63;;;13.40;99.90;;;;;;5067081;28;20290;-76
2023/10/22 04:33:38;;;;;;;2.67;2.47;;;13.30;99.90;;;;;;5066816;28;20206;-76
2023/10/22 04:36:06;;;;;;;3.05;2.85;;;13.30;99.90;;;;;;5067830;28;20195;-76
2023/10/22 04:38:33;;;;;;;3.75;2.90;;;13.30;99.90;;;;;;5068051;28;20772;-76
2023/10/22 04:40:59;;;;;;;3.20;3.00;;;13.30;99.90;;;;;;5067909;28;20214;-76
2023/10/22 04:43:30;;;;;;;2.90;2.70;;;13.40;99.90;;;;;;5069203;28;20206;-77
2023/10/22 04:45:59;;;;;;;3.05;2.85;;;13.30;99.90;;;;;;5066961;28;20198;-76
2023/10/22 04:48:26;;;;;;;3.08;2.75;;;13.30;99.90;;;;;;5066659;28;20300;-76
2023/10/22 04:50:55;;;;;;;3.38;3.17;;;13.30;99.90;;;;;;5067956;28;20653;-75
2023/10/22 04:53:22;;;;;;;2.85;2.65;;;13.30;99.90;;;;;;5067100;28;20202;-76
2023/10/22 04:55:55;;;;;;;2.90;2.70;;;13.30;99.90;;;;;;5067993;28;20243;-76
2023/10/22 04:58:22;;;;;;;3.08;2.88;;;13.20;99.90;;;;;;5066017;28;20778;-76
2023/10/22 05:00:50;;;;;;;2.78;2.58;;;13.20;99.90;;;;;;5068237;28;20565;-75
2023/10/22 05:03:17;;;;;;;2.88;2.67;;;13.20;99.90;;;;;;5066367;28;20791;-76
2023/10/22 05:05:44;;;;;;;2.97;2.70;;;13.20;99.90;;;;;;5066334;28;20206;-76
2023/10/22 05:08:12;;;;;;;3.17;2.97;;;13.20;99.90;;;;;;5064927;28;20633;-77
2023/10/22 05:10:40;;;;;;;3.88;3.28;;;13.20;99.90;;;;;;5067781;28;20210;-76
2023/10/22 05:13:07;;;;;;;3.45;3.15;;;13.30;99.90;;;;;;5067560;28;20251;-76
2023/10/22 05:15:34;;;;;;;3.72;3.35;;;13.30;99.90;;;;;;5067705;28;20821;-78
2023/10/22 05:18:01;;;;;;;13.80;3.38;;;13.30;99.90;;;;;;5069033;28;20217;-76
2023/10/22 05:20:29;;;;;;;27.23;4.72;;;13.30;99.90;;;;;;5067369;28;20198;-76
2023/10/22 05:22:56;;;;;;;4.63;3.30;;;13.30;99.90;;;;;;5064499;28;20268;-76
2023/10/22 05:25:24;;;;;;;19.00;3.95;;;13.20;99.90;;;;;;5067192;28;20220;-76
2023/10/22 05:27:51;;;;;;;2.80;2.60;;;13.10;99.90;;;;;;5066963;28;20801;-75
2023/10/22 05:30:18;;;;;;;15.98;3.80;;;13.10;99.90;;;;;;5066127;28;20202;-76
2023/10/22 05:32:45;;;;;;;96.25;6.78;;;12.90;99.90;;;;;;5067221;28;20334;-75
2023/10/22 05:35:13;;;;;;;6.43;3.30;;;12.90;99.90;;;;;;5066627;28;20263;-76
2023/10/22 05:37:43;;;;;;;3.67;3.10;;;12.80;99.90;;;;;;5066099;28;20218;-76
2023/10/22 05:40:13;;;;;;;3.28;2.95;;;12.80;99.90;;;;;;5064380;28;20202;-75
2023/10/22 05:42:41;;;;;;;3.17;2.97;;;12.80;99.90;;;;;;5066891;28;20297;-76
2023/10/22 05:45:09;;;;;;;2.90;2.70;;;12.80;99.90;;;;;;5063193;28;20572;-76
2023/10/22 05:47:37;;;;;;;3.35;3.05;;;12.90;99.90;;;;;;5067319;28;20728;-76
2023/10/22 05:50:04;;;;;;;2.95;2.75;;;12.90;99.90;;;;;;5066505;28;20199;-76
2023/10/22 05:52:31;;;;;;;2.88;2.67;;;12.90;99.90;;;;;;5065563;28;20281;-75
2023/10/22 05:54:58;;;;;;;3.00;2.80;;;13.00;99.90;;;;;;5065444;28;20730;-76
2023/10/22 05:57:28;;;;;;;2.50;2.40;;;13.00;99.90;;;;;;5066819;28;20251;-77
2023/10/22 05:59:58;;;;;;;2.95;2.75;;;13.00;99.90;;;;;;5066847;28;20197;-76
2023/10/22 06:02:25;;;;;;;3.40;3.10;;;12.90;99.90;;;;;;5067995;28;20222;-76
2023/10/22 06:04:52;;;;;;;3.03;2.83;;;12.90;99.90;;;;;;5066202;28;20202;-76
2023/10/22 06:07:19;;;;;;;2.95;2.72;;;12.90;99.90;;;;;;5067723;28;20204;-75
2023/10/22 06:09:47;;;;;;;2.70;2.50;;;12.90;99.90;;;;;;5066575;28;20220;-74
2023/10/22 06:12:14;;;;;;;2.63;2.42;;;12.80;99.90;;;;;;5067228;28;20206;-76
2023/10/22 06:14:41;;;;;;;2.53;2.33;;;12.80;99.90;;;;;;5068679;28;20275;-76
2023/10/22 06:17:10;;;;;;;2.03;1.92;;;12.80;99.90;;;;;;5062274;28;20205;-76
2023/10/22 06:19:36;;;;;;;2.35;2.17;;;12.80;99.90;;;;;;5065419;28;20738;-77
2023/10/22 06:22:04;;;;;;;2.40;2.30;;;12.80;99.90;;;;;;5065297;28;20218;-76
2023/10/22 06:24:31;;;;;;;2.30;2.15;;;12.80;99.90;;;;;;5066197;28;20310;-77
2023/10/22 06:26:58;;;;;;;2.35;2.25;;;12.80;99.90;;;;;;5067037;28;20715;-75
2023/10/22 06:29:25;;;;;;;2.38;2.28;;;12.80;99.90;;;;;;5065826;28;20226;-77
2023/10/22 06:31:52;;;;;;;2.20;2.10;;;12.80;99.90;;;;;;5065456;28;20653;-77
2023/10/22 06:34:20;;;;;;;2.88;2.25;;;12.70;99.90;;;;;;5064386;28;20673;-78
2023/10/22 06:36:47;;;;;;;2.20;2.00;;;12.70;99.90;;;;;;5068381;28;20198;-76
2023/10/22 06:39:15;;;;;;;2.33;2.22;;;12.70;99.90;;;;;;5067663;28;20789;-76
2023/10/22 06:41:42;;;;;;;1.83;1.73;;;12.70;99.90;;;;;;5068291;28;20308;-76
2023/10/22 06:44:09;;;;;;;2.00;1.90;;;12.80;99.90;;;;;;5065950;28;20283;-76
2023/10/22 06:46:36;;;;;;;1.70;1.60;;;12.80;99.90;;;;;;5066118;28;20745;-75
2023/10/22 06:49:03;;;;;;;1.85;1.75;;;12.80;99.90;;;;;;5065782;28;20225;-77
2023/10/22 06:51:31;;;;;;;1.77;1.67;;;12.90;99.90;;;;;;5063809;28;20202;-77
2023/10/22 06:53:58;;;;;;;1.85;1.75;;;12.90;99.90;;;;;;5064310;28;20620;-76
2023/10/22 06:56:25;;;;;;;1.80;1.70;;;12.80;99.90;;;;;;5064450;28;20255;-76
2023/10/22 06:58:52;;;;;;;2.17;2.05;;;12.80;99.90;;;;;;5063689;28;21536;-78
2023/10/22 07:01:19;;;;;;;1.73;1.63;;;12.90;99.90;;;;;;5061183;28;20199;-76
2023/10/22 07:03:47;;;;;;;1.75;1.65;;;12.90;99.90;;;;;;5064958;28;20202;-77
2023/10/22 07:06:14;;;;;;;2.05;1.95;;;12.80;99.90;;;;;;5064735;28;20761;-75
2023/10/22 07:08:43;;;;;;;1.70;1.60;;;12.90;99.90;;;;;;5065686;28;20746;-76
2023/10/22 07:11:10;;;;;;;1.70;1.60;;;12.90;99.90;;;;;;5064268;28;20298;-76
2023/10/22 07:13:37;;;;;;;1.77;1.67;;;12.90;99.90;;;;;;5065630;28;20205;-77
2023/10/22 07:16:04;;;;;;;1.58;1.48;;;12.90;99.90;;;;;;5064826;28;20202;-75
2023/10/22 07:18:31;;;;;;;1.70;1.60;;;12.90;99.90;;;;;;5060934;28;20287;-78
2023/10/22 07:21:00;;;;;;;1.42;1.42;;;13.00;99.90;;;;;;5062741;28;20267;-77
2023/10/22 07:23:31;;;;;;;1.30;1.30;;;13.00;99.90;;;;;;5067959;28;20264;-76
2023/10/22 07:25:59;;;;;;;2.20;1.80;;;13.00;99.90;;;;;;5065100;28;20208;-76
2023/10/22 07:28:26;;;;;;;2.97;2.35;;;12.90;99.90;;;;;;5065409;28;20269;-75
2023/10/22 07:30:53;;;;;;;2.28;2.10;;;12.80;99.90;;;;;;5065765;28;20275;-77
2023/10/22 07:33:20;;;;;;;2.63;2.42;;;12.70;99.90;;;;;;5064585;28;20210;-75
2023/10/22 07:35:54;;;;;;;2.17;2.08;;;12.50;99.90;;;;;;5067826;28;20220;-73
2023/10/22 07:38:21;;;;;;;2.70;2.50;;;12.40;99.90;;;;;;5064837;28;20226;-75
2023/10/22 07:40:50;;;;;;;2.63;2.42;;;12.30;99.90;;;;;;5067465;28;20206;-76
2023/10/22 07:43:19;;;;;;;2.50;2.33;;;12.30;99.90;;;;;;5065460;28;20209;-75
2023/10/22 07:45:46;;;;;;;2.40;2.20;;;12.30;99.90;;;;;;5064035;28;20202;-76
2023/10/22 07:48:13;;;;;;;2.08;1.98;;;12.40;99.90;;;;;;5065490;28;20234;-76
2023/10/22 07:50:40;;;;;;;2.10;2.00;;;12.40;99.90;;;;;;5063350;28;20206;-75
2023/10/22 07:53:07;;;;;;;1.90;1.80;;;12.50;99.90;;;;;;5065819;28;20660;-76
2023/10/22 07:55:34;;;;;;;1.65;1.55;;;12.60;99.90;;;;;;5063864;28;20225;-77
2023/10/22 07:58:01;;;;;;;2.08;1.90;;;12.70;99.90;;;;;;5063018;28;20304;-76
2023/10/22 08:00:29;;;;;;;1.77;1.67;;;12.80;99.90;;;;;;5063415;28;20202;-75
2023/10/22 08:02:56;;;;;;;2.33;2.13;;;12.90;99.90;;;;;;5066883;28;20696;-77
2023/10/22 08:05:23;;;;;;;1.80;1.70;;;12.90;99.90;;;;;;5061573;28;20261;-75
2023/10/22 08:07:50;;;;;;;2.00;1.90;;;13.00;99.90;;;;;;5060765;28;20314;-75
2023/10/22 08:10:17;;;;;;;2.10;2.00;;;13.00;99.90;;;;;;5064163;28;20202;-75
2023/10/22 08:12:44;;;;;;;2.03;1.92;;;13.00;99.90;;;;;;5063887;28;20264;-76
2023/10/22 08:15:12;;;;;;;1.85;1.75;;;13.00;99.90;;;;;;5059146;28;20198;-74
2023/10/22 08:17:40;;;;;;;1.83;1.73;;;13.00;99.90;;;;;;5059762;28;21875;-75
2023/10/22 08:20:08;;;;;;;1.90;1.80;;;13.00;99.90;;;;;;5058822;28;20198;-75
2023/10/22 08:22:36;;;;;;;1.55;1.45;;;13.00;99.90;;;;;;5061201;28;20214;-75
2023/10/22 08:25:03;;;;;;;1.77;1.67;;;13.00;99.90;;;;;;5059030;28;20198;-76
2023/10/22 08:27:30;;;;;;;1.90;1.80;;;13.00;99.90;;;;;;5056773;28;21106;-75
2023/10/22 08:29:57;;;;;;;1.90;1.80;;;13.00;99.90;;;;;;5057891;28;20239;-76
2023/10/22 08:32:24;;;;;;;1.70;1.60;;;13.00;99.90;;;;;;5060066;28;20652;-76
2023/10/22 08:34:52;;;;;;;1.70;1.60;;;13.00;99.90;;;;;;5060157;28;20203;-75
2023/10/22 08:37:19;;;;;;;1.60;1.50;;;13.00;99.90;;;;;;5058361;28;20803;-75
2023/10/22 08:39:46;;;;;;;2.35;2.00;;;13.00;99.90;;;;;;5058026;28;20206;-76
2023/10/22 08:42:19;;;;;;;2.25;2.08;;;13.10;99.90;;;;;;5060627;28;20267;-75
2023/10/22 08:44:48;;;;;;;2.20;2.10;;;13.20;99.90;;;;;;5059325;28;20311;-76
2023/10/22 08:47:16;;;;;;;1.90;1.80;;;13.30;99.90;;;;;;5060885;28;20206;-75
2023/10/22 08:49:44;;;;;;;2.45;2.30;;;13.30;99.90;;;;;;5060721;28;20260;-76
2023/10/22 08:52:13;;;;;;;2.03;1.92;;;13.40;99.90;;;;;;5058364;28;20195;-75
2023/10/22 08:54:40;;;;;;;2.00;1.90;;;13.40;99.90;;;;;;5060609;28;20247;-75
2023/10/22 08:57:07;;;;;;;2.92;2.72;;;13.50;99.90;;;;;;5059931;28;20197;-76
2023/10/22 08:59:36;;;;;;;2.40;2.30;;;13.60;99.90;;;;;;5060918;28;20884;-76
2023/10/22 09:02:07;;;;;;;3.00;2.80;;;13.60;99.90;;;;;;5060087;28;20207;-75
2023/10/22 09:04:34;;;;;;;4.10;3.70;;;13.70;99.90;;;;;;5060988;28;20218;-74
2023/10/22 09:07:04;;;;;;;3.78;3.40;;;13.70;99.90;;;;;;5059575;28;20206;-75
2023/10/22 09:09:35;;;;;;;3.95;3.45;;;13.80;99.90;;;;;;5060389;28;20275;-74
2023/10/22 09:12:03;;;;;;;3.15;2.67;;;13.90;99.90;;;;;;5061363;28;20213;-76
2023/10/22 09:14:30;;;;;;;2.90;2.60;;;14.00;99.90;;;;;;5058688;28;20268;-77
2023/10/22 09:16:57;;;;;;;3.72;2.35;;;14.10;99.90;;;;;;5062465;28;20217;-76
2023/10/22 09:19:39;;;;;;;2.20;2.10;;;14.30;99.90;;;;;;5061050;28;20230;-76
2023/10/22 09:22:06;;;;;;;2.30;2.20;;;14.40;99.90;;;;;;5059647;28;20904;-75
2023/10/22 09:24:49;;;;;;;2.53;2.33;;;14.60;99.90;;;;;;5059493;28;20221;-75
2023/10/22 09:27:24;;;;;;;3.00;2.55;;;14.80;99.90;;;;;;5061085;28;21723;-76
2023/10/22 09:29:53;;;;;;;2.30;2.10;;;14.90;99.90;;;;;;5061429;28;20230;-75
2023/10/22 09:32:19;;;;;;;1.92;1.70;;;15.00;99.90;;;;;;5061024;28;20979;-76
2023/10/22 09:34:47;;;;;;;1.65;1.55;;;15.10;99.90;;;;;;5061425;28;21145;-76
2023/10/22 09:37:14;;;;;;;1.88;1.48;;;15.20;99.90;;;;;;5062036;28;20202;-74
2023/10/22 09:39:44;;;;;;;1.70;1.60;;;15.50;99.90;;;;;;5059459;28;20255;-75
2023/10/22 09:42:13;;;;;;;1.23;1.23;;;15.70;99.90;;;;;;5058242;28;20191;-76
2023/10/22 09:44:40;;;;;;;1.40;1.30;;;15.90;99.90;;;;;;5059350;28;20236;-75
2023/10/22 09:47:08;;;;;;;2.60;1.90;;;16.10;99.90;;;;;;5060710;28;20188;-75
2023/10/22 09:49:38;;;;;;;1.60;1.50;;;16.10;99.90;;;;;;5054892;28;20206;-76
2023/10/22 09:52:07;;;;;;;1.20;1.20;;;16.10;99.90;;;;;;5055270;28;20202;-76
2023/10/22 09:54:38;;;;;;;1.50;1.40;;;16.10;99.90;;;;;;5063750;28;20287;-75
2023/10/22 09:57:10;;;;;;;1.70;1.60;;;16.00;99.90;;;;;;5056175;28;20288;-76
2023/10/22 09:59:38;;;;;;;1.30;1.20;;;16.00;99.90;;;;;;5062846;28;20194;-75
2023/10/22 10:02:05;;;;;;;1.45;1.35;;;16.20;99.90;;;;;;5061848;28;20210;-75
2023/10/22 10:04:37;;;;;;;1.25;1.25;;;16.30;99.90;;;;;;5059486;28;20275;-75
2023/10/22 10:07:05;;;;;;;1.05;1.05;;;16.50;99.90;;;;;;5059246;28;20319;-75
2023/10/22 10:09:34;;;;;;;1.60;1.50;;;17.10;99.90;;;;;;5061931;28;20217;-75
2023/10/22 10:12:05;;;;;;;1.40;1.30;;;17.30;99.90;;;;;;5062198;28;20190;-76
2023/10/22 10:14:42;;;;;;;1.05;1.05;;;17.10;99.90;;;;;;5063679;28;20240;-76
2023/10/22 10:17:10;;;;;;;1.00;1.00;;;16.80;99.90;;;;;;5065037;28;20284;-76
2023/10/22 10:19:37;;;;;;;1.27;1.20;;;16.50;99.90;;;;;;5056319;28;20199;-75
2023/10/22 10:22:05;;;;;;;1.23;1.10;;;16.70;99.90;;;;;;5062963;28;20601;-75
2023/10/22 10:24:32;;;;;;;0.90;0.90;;;17.50;99.90;;;;;;5063354;28;20259;-74
2023/10/22 10:27:27;;;;;;;1.20;1.20;;;18.20;99.90;;;;;;5057479;28;20271;-76
2023/10/22 10:30:20;;;;;;;1.40;1.30;;;18.50;99.90;;;;;;5061068;28;20251;-76
2023/10/22 10:32:50;;;;;;;1.13;1.02;;;18.30;99.90;;;;;;5061646;28;20218;-74
2023/10/22 10:35:18;;;;;;;0.98;0.90;;;18.50;99.90;;;;;;5059670;28;20229;-75
2023/10/22 10:38:18;;;;;;;1.08;1.00;;;18.60;99.90;;;;;;5056848;28;20253;-74
2023/10/22 10:40:46;;;;;;;1.02;1.02;;;18.90;99.90;;;;;;5058857;28;20243;-75
2023/10/22 10:43:14;;;;;;;2.25;1.13;;;19.10;99.90;;;;;;5060169;28;20233;-76
2023/10/22 10:46:21;;;;;;;10.98;4.60;;;19.50;99.90;;;;;;5058645;28;20207;-73
2023/10/22 10:48:48;;;;;;;5.38;2.58;;;19.80;99.90;;;;;;5062375;28;20214;-75
2023/10/22 10:51:17;;;;;;;2.17;1.70;;;20.10;99.90;;;;;;5060053;28;20233;-76
2023/10/22 10:54:18;;;;;;;1.30;1.20;;;20.40;99.90;;;;;;5062934;28;20336;-74
2023/10/22 10:56:50;;;;;;;1.35;1.25;;;20.60;99.90;;;;;;5059098;28;20197;-74
2023/10/22 10:59:31;;;;;;;1.35;1.25;;;20.70;99.90;;;;;;5059131;28;20321;-76
2023/10/22 11:02:01;;;;;;;1.50;1.30;;;20.50;99.90;;;;;;5059522;28;20290;-76
2023/10/22 11:04:28;;;;;;;3.45;1.45;;;20.40;99.90;;;;;;5061552;28;20206;-76
2023/10/22 11:06:56;;;;;;;1.33;1.08;;;20.50;99.90;;;;;;5053774;28;20255;-75
2023/10/22 11:09:23;;;;;;;2.25;1.67;;;20.70;99.90;;;;;;5056133;28;20865;-75
2023/10/22 11:11:58;;;;;;;2.65;1.52;;;20.80;99.90;;;;;;5056315;28;20245;-76
2023/10/22 11:14:25;;;;;;;2.83;1.60;;;21.00;99.90;;;;;;5054243;28;20196;-76
2023/10/22 11:16:53;;;;;;;1.38;1.27;;;21.00;99.90;;;;;;5056757;28;20280;-75
2023/10/22 11:19:25;;;;;;;0.70;0.70;;;20.80;99.90;;;;;;5059909;28;20210;-76
2023/10/22 11:21:54;;;;;;;2.58;1.30;;;20.10;99.90;;;;;;5058176;28;20195;-76
2023/10/22 11:24:24;;;;;;;1.45;1.35;;;19.80;99.90;;;;;;5063072;28;20551;-77
2023/10/22 11:26:52;;;;;;;1.70;1.30;;;20.10;99.90;;;;;;5061788;28;20198;-77
2023/10/22 11:29:19;;;;;;;1.48;1.10;;;20.00;99.90;;;;;;5059611;28;20255;-75
2023/10/22 11:31:54;;;;;;;1.20;1.10;;;19.60;99.90;;;;;;5063410;28;20198;-75
2023/10/22 11:34:21;;;;;;;0.80;0.80;;;19.70;99.90;;;;;;5061046;28;20189;-75
2023/10/22 11:36:56;;;;;;;0.75;0.75;;;20.10;99.90;;;;;;5065126;28;20275;-75
2023/10/22 11:39:23;;;;;;;0.75;0.75;;;20.10;99.90;;;;;;5063800;28;21151;-74
2023/10/22 11:41:59;;;;;;;0.70;0.70;;;20.20;99.90;;;;;;5061729;28;20217;-75
2023/10/22 11:44:31;;;;;;;1.30;0.80;;;20.20;99.90;;;;;;5061242;28;20245;-75
2023/10/22 11:46:59;;;;;;;0.95;0.95;;;20.20;99.90;;;;;;5061614;28;20202;-73
2023/10/22 11:49:26;;;;;;;0.80;0.80;;;20.50;99.90;;;;;;5065236;28;20304;-75
2023/10/22 11:51:55;;;;;;;0.80;0.80;;;20.70;99.90;;;;;;5063960;28;20275;-75
2023/10/22 11:54:45;;;;;;;0.80;0.80;;;20.90;99.90;;;;;;5063101;28;20255;-74
2023/10/22 11:57:13;;;;;;;0.70;0.70;;;20.40;99.90;;;;;;5061385;28;20260;-76
2023/10/22 11:59:41;;;;;;;1.48;0.88;;;20.40;99.90;;;;;;5063256;28;20190;-75
2023/10/22 12:02:08;;;;;;;0.75;0.75;;;20.30;99.90;;;;;;5063305;28;20285;-75
2023/10/22 12:04:34;;;;;;;0.68;0.68;;;20.20;99.90;;;;;;5066547;28;21019;-75
2023/10/22 12:07:03;;;;;;;0.70;0.70;;;20.30;99.90;;;;;;5065171;28;20190;-74
2023/10/22 12:09:30;;;;;;;0.73;0.73;;;20.30;99.90;;;;;;5064120;28;20247;-75
2023/10/22 12:11:57;;;;;;;0.95;0.95;;;20.30;99.90;;;;;;5063272;28;20252;-75
2023/10/22 12:14:24;;;;;;;2.13;0.90;;;20.20;99.90;;;;;;5061104;28;20209;-74
2023/10/22 12:16:51;;;;;;;0.70;0.70;;;20.20;99.90;;;;;;5062034;28;20286;-75
2023/10/22 12:19:18;;;;;;;1.20;1.10;;;20.40;99.90;;;;;;5064880;28;20523;-76
2023/10/22 12:21:45;;;;;;;0.75;0.75;;;20.60;99.90;;;;;;5062020;28;20195;-76
2023/10/22 12:24:13;;;;;;;0.77;0.77;;;20.90;99.90;;;;;;5063351;28;20210;-75
2023/10/22 12:26:40;;;;;;;0.95;0.85;;;20.80;99.90;;;;;;5063901;28;20302;-75
2023/10/22 12:29:08;;;;;;;0.93;0.93;;;20.70;99.90;;;;;;5063056;28;20230;-74
2023/10/22 12:31:34;;;;;;;0.88;0.82;;;20.70;99.90;;;;;;5066318;28;20252;-77
2023/10/22 12:34:03;;;;;;;0.80;0.80;;;20.80;99.90;;;;;;5061426;28;20197;-75
2023/10/22 12:36:30;;;;;;;0.88;0.88;;;20.60;99.90;;;;;;5059777;28;20199;-74
2023/10/22 12:38:58;;;;;;;0.70;0.70;;;20.60;99.90;;;;;;5061819;28;20214;-75
2023/10/22 12:41:26;;;;;;;0.80;0.80;;;20.60;99.90;;;;;;5061629;28;20202;-75
2023/10/22 12:43:53;;;;;;;1.42;0.70;;;20.80;99.90;;;;;;5062341;28;20233;-74
2023/10/22 12:46:20;;;;;;;1.73;0.80;;;20.60;99.90;;;;;;5062450;28;20259;-73
2023/10/22 12:48:47;;;;;;;0.80;0.80;;;20.40;99.90;;;;;;5063527;28;20591;-76
2023/10/22 12:51:14;;;;;;;0.80;0.80;;;20.20;99.90;;;;;;5062379;28;20703;-74